sensor_id;sensor_type;location;lat;lon;timestamp;P1;durP1;ratioP1;P2;durP2;ratioP2
35558;SDS011;21661;50.794;-1.066;2024-01-10T00:02:01;8.77;;;3.03;;
35558;SDS011;21661;50.794;-1.066;2024-01-10T00:04:26;7.22;;;2.92;;
35558;SDS011;21661;50.794;-1.066;2024-01-10T00:06:52;8.40;;;2.67;;
35558;SDS011;21661;50.794;-1.066;2024-01-10T00:09:18;7.68;;;2.70;;
35558;SDS011;21661;50.794;-1.066;2024-01-10T00:11:43;7.57;;;2.30;;
35558;SDS011;21661;50.794;-1.066;2024-01-10T00:14:12;11.73;;;2.75;;
35558;SDS011;21661;50.794;-1.066;2024-01-10T00:16:38;12.45;;;3.22;;
35558;SDS011;21661;50.794;-1.066;2024-01-10T00:19:03;14.27;;;3.58;;
35558;SDS011;21661;50.794;-1.066;2024-01-10T00:21:29;7.10;;;2.83;;
35558;SDS011;21661;50.794;-1.066;2024-01-10T00:23:55;8.93;;;2.85;;
35558;SDS011;21661;50.794;-1.066;2024-01-10T00:26:20;9.15;;;2.50;;
35558;SDS011;21661;50.794;-1.066;2024-01-10T00:28:47;11.77;;;3.25;;
35558;SDS011;21661;50.794;-1.066;2024-01-10T00:31:13;9.32;;;2.75;;
35558;SDS011;21661;50.794;-1.066;2024-01-10T00:33:39;8.98;;;2.90;;
35558;SDS011;21661;50.794;-1.066;2024-01-10T00:36:05;9.98;;;2.97;;
35558;SDS011;21661;50.794;-1.066;2024-01-10T00:38:31;8.45;;;2.45;;
35558;SDS011;21661;50.794;-1.066;2024-01-10T00:40:57;12.18;;;3.08;;
35558;SDS011;21661;50.794;-1.066;2024-01-10T00:43:22;10.50;;;2.75;;
35558;SDS011;21661;50.794;-1.066;2024-01-10T00:45:48;11.57;;;3.53;;
35558;SDS011;21661;50.794;-1.066;2024-01-10T00:48:13;6.80;;;2.65;;
35558;SDS011;21661;50.794;-1.066;2024-01-10T00:50:39;7.45;;;2.50;;
35558;SDS011;21661;50.794;-1.066;2024-01-10T00:53:05;5.30;;;2.33;;
35558;SDS011;21661;50.794;-1.066;2024-01-10T00:55:30;8.25;;;2.80;;
35558;SDS011;21661;50.794;-1.066;2024-01-10T00:57:56;8.18;;;3.13;;
35558;SDS011;21661;50.794;-1.066;2024-01-10T01:00:22;12.10;;;2.85;;
35558;SDS011;21661;50.794;-1.066;2024-01-10T01:02:47;8.68;;;2.60;;
35558;SDS011;21661;50.794;-1.066;2024-01-10T01:05:13;9.80;;;2.75;;
35558;SDS011;21661;50.794;-1.066;2024-01-10T01:07:38;8.55;;;2.67;;
35558;SDS011;21661;50.794;-1.066;2024-01-10T01:10:05;10.63;;;2.83;;
35558;SDS011;21661;50.794;-1.066;2024-01-10T01:12:31;10.80;;;3.38;;
35558;SDS011;21661;50.794;-1.066;2024-01-10T01:14:56;10.35;;;2.83;;
35558;SDS011;21661;50.794;-1.066;2024-01-10T01:17:22;12.68;;;2.97;;
35558;SDS011;21661;50.794;-1.066;2024-01-10T01:19:48;10.10;;;2.45;;
35558;SDS011;21661;50.794;-1.066;2024-01-10T01:22:13;10.70;;;3.28;;
35558;SDS011;21661;50.794;-1.066;2024-01-10T01:24:39;9.88;;;2.92;;
35558;SDS011;21661;50.794;-1.066;2024-01-10T01:27:05;10.45;;;2.80;;
35558;SDS011;21661;50.794;-1.066;2024-01-10T01:29:30;7.82;;;2.78;;
35558;SDS011;21661;50.794;-1.066;2024-01-10T01:31:56;7.35;;;2.72;;
35558;SDS011;21661;50.794;-1.066;2024-01-10T01:34:22;9.18;;;2.50;;
35558;SDS011;21661;50.794;-1.066;2024-01-10T01:36:47;8.18;;;2.90;;
35558;SDS011;21661;50.794;-1.066;2024-01-10T01:39:13;9.43;;;3.10;;
35558;SDS011;21661;50.794;-1.066;2024-01-10T01:41:39;11.85;;;3.08;;
35558;SDS011;21661;50.794;-1.066;2024-01-10T01:44:05;9.88;;;3.17;;
35558;SDS011;21661;50.794;-1.066;2024-01-10T01:46:31;12.10;;;2.80;;
35558;SDS011;21661;50.794;-1.066;2024-01-10T01:48:58;8.73;;;2.80;;
35558;SDS011;21661;50.794;-1.066;2024-01-10T01:51:24;9.48;;;2.55;;
35558;SDS011;21661;50.794;-1.066;2024-01-10T01:53:53;10.50;;;3.35;;
35558;SDS011;21661;50.794;-1.066;2024-01-10T01:56:19;8.63;;;2.97;;
35558;SDS011;21661;50.794;-1.066;2024-01-10T01:58:45;9.05;;;2.97;;
35558;SDS011;21661;50.794;-1.066;2024-01-10T02:01:11;9.35;;;3.10;;
35558;SDS011;21661;50.794;-1.066;2024-01-10T02:03:37;8.82;;;2.70;;
35558;SDS011;21661;50.794;-1.066;2024-01-10T02:06:03;10.75;;;3.00;;
35558;SDS011;21661;50.794;-1.066;2024-01-10T02:08:32;10.90;;;3.95;;
35558;SDS011;21661;50.794;-1.066;2024-01-10T02:10:59;10.60;;;2.92;;
35558;SDS011;21661;50.794;-1.066;2024-01-10T02:13:26;10.00;;;3.45;;
35558;SDS011;21661;50.794;-1.066;2024-01-10T02:15:53;9.25;;;3.08;;
35558;SDS011;21661;50.794;-1.066;2024-01-10T02:18:19;9.82;;;2.92;;
35558;SDS011;21661;50.794;-1.066;2024-01-10T02:20:45;9.05;;;3.00;;
35558;SDS011;21661;50.794;-1.066;2024-01-10T02:23:11;8.38;;;2.85;;
35558;SDS011;21661;50.794;-1.066;2024-01-10T02:25:38;10.30;;;3.03;;
35558;SDS011;21661;50.794;-1.066;2024-01-10T02:28:05;16.60;;;3.40;;
35558;SDS011;21661;50.794;-1.066;2024-01-10T02:30:32;8.25;;;3.30;;
35558;SDS011;21661;50.794;-1.066;2024-01-10T02:32:58;6.63;;;3.10;;
35558;SDS011;21661;50.794;-1.066;2024-01-10T02:35:23;10.05;;;2.97;;
35558;SDS011;21661;50.794;-1.066;2024-01-10T02:37:49;10.45;;;3.05;;
35558;SDS011;21661;50.794;-1.066;2024-01-10T02:40:16;10.43;;;3.40;;
35558;SDS011;21661;50.794;-1.066;2024-01-10T02:42:42;10.38;;;3.40;;
35558;SDS011;21661;50.794;-1.066;2024-01-10T02:45:08;8.10;;;3.10;;
35558;SDS011;21661;50.794;-1.066;2024-01-10T02:47:34;8.25;;;2.67;;
35558;SDS011;21661;50.794;-1.066;2024-01-10T02:50:01;7.00;;;3.10;;
35558;SDS011;21661;50.794;-1.066;2024-01-10T02:52:27;9.35;;;3.35;;
35558;SDS011;21661;50.794;-1.066;2024-01-10T02:54:52;8.30;;;2.95;;
35558;SDS011;21661;50.794;-1.066;2024-01-10T02:57:18;10.43;;;3.33;;
35558;SDS011;21661;50.794;-1.066;2024-01-10T02:59:44;10.50;;;3.53;;
35558;SDS011;21661;50.794;-1.066;2024-01-10T03:02:09;14.45;;;3.42;;
35558;SDS011;21661;50.794;-1.066;2024-01-10T03:04:35;8.40;;;2.78;;
35558;SDS011;21661;50.794;-1.066;2024-01-10T03:07:00;11.55;;;2.85;;
35558;SDS011;21661;50.794;-1.066;2024-01-10T03:09:26;9.20;;;2.97;;
35558;SDS011;21661;50.794;-1.066;2024-01-10T03:11:52;7.57;;;3.00;;
35558;SDS011;21661;50.794;-1.066;2024-01-10T03:14:18;10.25;;;3.33;;
35558;SDS011;21661;50.794;-1.066;2024-01-10T03:16:43;10.68;;;2.97;;
35558;SDS011;21661;50.794;-1.066;2024-01-10T03:19:09;8.45;;;2.78;;
35558;SDS011;21661;50.794;-1.066;2024-01-10T03:21:34;8.48;;;3.35;;
35558;SDS011;21661;50.794;-1.066;2024-01-10T03:24:00;9.88;;;3.60;;
35558;SDS011;21661;50.794;-1.066;2024-01-10T03:26:27;8.60;;;3.05;;
35558;SDS011;21661;50.794;-1.066;2024-01-10T03:28:55;6.95;;;2.55;;
35558;SDS011;21661;50.794;-1.066;2024-01-10T03:31:21;10.50;;;3.20;;
35558;SDS011;21661;50.794;-1.066;2024-01-10T03:33:47;12.20;;;3.25;;
35558;SDS011;21661;50.794;-1.066;2024-01-10T03:36:14;8.65;;;3.25;;
35558;SDS011;21661;50.794;-1.066;2024-01-10T03:38:41;7.78;;;3.00;;
35558;SDS011;21661;50.794;-1.066;2024-01-10T03:41:07;12.02;;;3.40;;
35558;SDS011;21661;50.794;-1.066;2024-01-10T03:43:37;10.43;;;3.45;;
35558;SDS011;21661;50.794;-1.066;2024-01-10T03:46:03;13.13;;;3.15;;
35558;SDS011;21661;50.794;-1.066;2024-01-10T03:48:28;9.35;;;3.20;;
35558;SDS011;21661;50.794;-1.066;2024-01-10T03:50:54;7.55;;;3.03;;
35558;SDS011;21661;50.794;-1.066;2024-01-10T03:53:20;7.95;;;3.30;;
35558;SDS011;21661;50.794;-1.066;2024-01-10T03:55:45;11.90;;;3.10;;
35558;SDS011;21661;50.794;-1.066;2024-01-10T03:58:11;10.18;;;3.05;;
35558;SDS011;21661;50.794;-1.066;2024-01-10T04:00:36;8.05;;;2.92;;
35558;SDS011;21661;50.794;-1.066;2024-01-10T04:03:02;8.85;;;2.97;;
35558;SDS011;21661;50.794;-1.066;2024-01-10T04:05:28;13.80;;;3.22;;
35558;SDS011;21661;50.794;-1.066;2024-01-10T04:07:54;8.10;;;2.88;;
35558;SDS011;21661;50.794;-1.066;2024-01-10T04:10:22;10.48;;;3.20;;
35558;SDS011;21661;50.794;-1.066;2024-01-10T04:12:47;7.72;;;2.75;;
35558;SDS011;21661;50.794;-1.066;2024-01-10T04:15:13;7.80;;;3.22;;
35558;SDS011;21661;50.794;-1.066;2024-01-10T04:17:39;6.82;;;3.22;;
35558;SDS011;21661;50.794;-1.066;2024-01-10T04:20:05;9.13;;;3.00;;
35558;SDS011;21661;50.794;-1.066;2024-01-10T04:22:31;10.27;;;3.38;;
35558;SDS011;21661;50.794;-1.066;2024-01-10T04:24:57;7.47;;;2.90;;
35558;SDS011;21661;50.794;-1.066;2024-01-10T04:27:24;7.32;;;2.95;;
35558;SDS011;21661;50.794;-1.066;2024-01-10T04:29:51;8.77;;;3.03;;
35558;SDS011;21661;50.794;-1.066;2024-01-10T04:32:16;9.15;;;3.15;;
35558;SDS011;21661;50.794;-1.066;2024-01-10T04:34:42;10.18;;;3.90;;
35558;SDS011;21661;50.794;-1.066;2024-01-10T04:37:08;9.15;;;3.33;;
35558;SDS011;21661;50.794;-1.066;2024-01-10T04:39:33;10.50;;;3.33;;
35558;SDS011;21661;50.794;-1.066;2024-01-10T04:41:59;11.70;;;3.00;;
35558;SDS011;21661;50.794;-1.066;2024-01-10T04:44:25;11.70;;;3.10;;
35558;SDS011;21661;50.794;-1.066;2024-01-10T04:46:51;10.98;;;3.28;;
35558;SDS011;21661;50.794;-1.066;2024-01-10T04:49:17;8.00;;;3.38;;
35558;SDS011;21661;50.794;-1.066;2024-01-10T04:51:42;9.05;;;3.00;;
35558;SDS011;21661;50.794;-1.066;2024-01-10T04:54:08;10.95;;;3.97;;
35558;SDS011;21661;50.794;-1.066;2024-01-10T04:56:34;10.10;;;3.50;;
35558;SDS011;21661;50.794;-1.066;2024-01-10T04:59:03;10.95;;;3.50;;
35558;SDS011;21661;50.794;-1.066;2024-01-10T05:01:29;8.90;;;3.25;;
35558;SDS011;21661;50.794;-1.066;2024-01-10T05:03:56;9.85;;;3.85;;
35558;SDS011;21661;50.794;-1.066;2024-01-10T05:06:21;11.00;;;3.60;;
35558;SDS011;21661;50.794;-1.066;2024-01-10T05:08:47;8.55;;;2.88;;
35558;SDS011;21661;50.794;-1.066;2024-01-10T05:11:13;7.63;;;3.28;;
35558;SDS011;21661;50.794;-1.066;2024-01-10T05:13:40;9.73;;;3.58;;
35558;SDS011;21661;50.794;-1.066;2024-01-10T05:16:05;9.13;;;3.17;;
35558;SDS011;21661;50.794;-1.066;2024-01-10T05:18:31;10.02;;;3.85;;
35558;SDS011;21661;50.794;-1.066;2024-01-10T05:20:57;7.38;;;2.80;;
35558;SDS011;21661;50.794;-1.066;2024-01-10T05:23:23;6.90;;;2.97;;
35558;SDS011;21661;50.794;-1.066;2024-01-10T05:25:49;9.85;;;3.20;;
35558;SDS011;21661;50.794;-1.066;2024-01-10T05:28:15;8.02;;;3.03;;
35558;SDS011;21661;50.794;-1.066;2024-01-10T05:30:40;7.82;;;2.53;;
35558;SDS011;21661;50.794;-1.066;2024-01-10T05:33:08;10.15;;;3.33;;
35558;SDS011;21661;50.794;-1.066;2024-01-10T05:35:34;6.22;;;2.90;;
35558;SDS011;21661;50.794;-1.066;2024-01-10T05:38:00;9.00;;;3.33;;
35558;SDS011;21661;50.794;-1.066;2024-01-10T05:40:29;8.60;;;2.97;;
35558;SDS011;21661;50.794;-1.066;2024-01-10T05:42:56;12.65;;;3.22;;
35558;SDS011;21661;50.794;-1.066;2024-01-10T05:45:24;9.68;;;3.38;;
35558;SDS011;21661;50.794;-1.066;2024-01-10T05:47:50;13.32;;;3.78;;
35558;SDS011;21661;50.794;-1.066;2024-01-10T05:50:15;9.63;;;3.42;;
35558;SDS011;21661;50.794;-1.066;2024-01-10T05:52:42;9.07;;;3.30;;
35558;SDS011;21661;50.794;-1.066;2024-01-10T05:55:08;10.82;;;2.83;;
35558;SDS011;21661;50.794;-1.066;2024-01-10T05:57:35;10.02;;;3.17;;
35558;SDS011;21661;50.794;-1.066;2024-01-10T06:00:01;15.57;;;3.90;;
35558;SDS011;21661;50.794;-1.066;2024-01-10T06:02:28;8.75;;;3.50;;
35558;SDS011;21661;50.794;-1.066;2024-01-10T06:04:53;11.48;;;2.92;;
35558;SDS011;21661;50.794;-1.066;2024-01-10T06:07:19;11.88;;;3.40;;
35558;SDS011;21661;50.794;-1.066;2024-01-10T06:09:46;10.13;;;3.03;;
35558;SDS011;21661;50.794;-1.066;2024-01-10T06:12:11;11.13;;;3.25;;
35558;SDS011;21661;50.794;-1.066;2024-01-10T06:14:37;11.25;;;3.55;;
35558;SDS011;21661;50.794;-1.066;2024-01-10T06:17:03;8.30;;;3.05;;
35558;SDS011;21661;50.794;-1.066;2024-01-10T06:19:29;11.18;;;3.00;;
35558;SDS011;21661;50.794;-1.066;2024-01-10T06:21:58;9.27;;;2.97;;
35558;SDS011;21661;50.794;-1.066;2024-01-10T06:24:25;10.93;;;3.47;;
35558;SDS011;21661;50.794;-1.066;2024-01-10T06:26:51;10.07;;;3.05;;
35558;SDS011;21661;50.794;-1.066;2024-01-10T06:29:17;9.60;;;3.17;;
35558;SDS011;21661;50.794;-1.066;2024-01-10T06:31:43;8.98;;;2.83;;
35558;SDS011;21661;50.794;-1.066;2024-01-10T06:34:09;10.60;;;3.33;;
35558;SDS011;21661;50.794;-1.066;2024-01-10T06:36:35;8.80;;;3.38;;
35558;SDS011;21661;50.794;-1.066;2024-01-10T06:39:01;12.15;;;3.55;;
35558;SDS011;21661;50.794;-1.066;2024-01-10T06:41:27;8.77;;;3.10;;
35558;SDS011;21661;50.794;-1.066;2024-01-10T06:43:53;11.52;;;3.38;;
35558;SDS011;21661;50.794;-1.066;2024-01-10T06:46:19;9.27;;;3.53;;
35558;SDS011;21661;50.794;-1.066;2024-01-10T06:48:45;11.10;;;3.88;;
35558;SDS011;21661;50.794;-1.066;2024-01-10T06:51:14;11.07;;;3.63;;
35558;SDS011;21661;50.794;-1.066;2024-01-10T06:53:40;8.75;;;2.88;;
35558;SDS011;21661;50.794;-1.066;2024-01-10T06:56:06;9.88;;;3.40;;
35558;SDS011;21661;50.794;-1.066;2024-01-10T06:58:34;7.25;;;3.38;;
35558;SDS011;21661;50.794;-1.066;2024-01-10T07:01:00;10.20;;;2.85;;
35558;SDS011;21661;50.794;-1.066;2024-01-10T07:03:26;7.30;;;2.67;;
35558;SDS011;21661;50.794;-1.066;2024-01-10T07:05:52;8.93;;;2.45;;
35558;SDS011;21661;50.794;-1.066;2024-01-10T07:08:17;5.75;;;2.47;;
35558;SDS011;21661;50.794;-1.066;2024-01-10T07:10:43;12.95;;;3.15;;
35558;SDS011;21661;50.794;-1.066;2024-01-10T07:13:09;7.75;;;2.33;;
35558;SDS011;21661;50.794;-1.066;2024-01-10T07:15:35;7.53;;;2.20;;
35558;SDS011;21661;50.794;-1.066;2024-01-10T07:18:02;9.35;;;2.67;;
35558;SDS011;21661;50.794;-1.066;2024-01-10T07:20:28;14.57;;;2.38;;
35558;SDS011;21661;50.794;-1.066;2024-01-10T07:22:53;7.18;;;2.10;;
35558;SDS011;21661;50.794;-1.066;2024-01-10T07:25:19;6.55;;;1.90;;
35558;SDS011;21661;50.794;-1.066;2024-01-10T07:27:47;6.97;;;2.17;;
35558;SDS011;21661;50.794;-1.066;2024-01-10T07:30:13;8.40;;;1.90;;
35558;SDS011;21661;50.794;-1.066;2024-01-10T07:32:39;22.02;;;8.32;;
35558;SDS011;21661;50.794;-1.066;2024-01-10T07:35:09;21.50;;;9.23;;
35558;SDS011;21661;50.794;-1.066;2024-01-10T07:37:36;17.08;;;5.28;;
35558;SDS011;21661;50.794;-1.066;2024-01-10T07:40:06;12.13;;;2.83;;
35558;SDS011;21661;50.794;-1.066;2024-01-10T07:42:36;7.90;;;2.38;;
35558;SDS011;21661;50.794;-1.066;2024-01-10T07:45:02;7.38;;;2.08;;
35558;SDS011;21661;50.794;-1.066;2024-01-10T07:47:33;8.15;;;1.95;;
35558;SDS011;21661;50.794;-1.066;2024-01-10T07:50:02;7.40;;;1.70;;
35558;SDS011;21661;50.794;-1.066;2024-01-10T07:52:40;8.57;;;2.17;;
35558;SDS011;21661;50.794;-1.066;2024-01-10T07:55:07;10.25;;;2.40;;
35558;SDS011;21661;50.794;-1.066;2024-01-10T07:57:33;7.57;;;2.28;;
35558;SDS011;21661;50.794;-1.066;2024-01-10T07:59:59;8.25;;;2.20;;
35558;SDS011;21661;50.794;-1.066;2024-01-10T08:02:25;8.73;;;2.10;;
35558;SDS011;21661;50.794;-1.066;2024-01-10T08:04:51;7.32;;;1.80;;
35558;SDS011;21661;50.794;-1.066;2024-01-10T08:07:17;10.18;;;2.22;;
35558;SDS011;21661;50.794;-1.066;2024-01-10T08:09:43;9.88;;;2.15;;
35558;SDS011;21661;50.794;-1.066;2024-01-10T08:12:08;8.45;;;1.92;;
35558;SDS011;21661;50.794;-1.066;2024-01-10T08:14:34;8.75;;;1.88;;
35558;SDS011;21661;50.794;-1.066;2024-01-10T08:16:59;7.68;;;2.03;;
35558;SDS011;21661;50.794;-1.066;2024-01-10T08:19:26;6.00;;;1.80;;
35558;SDS011;21661;50.794;-1.066;2024-01-10T08:21:55;4.90;;;1.77;;
35558;SDS011;21661;50.794;-1.066;2024-01-10T08:24:21;8.23;;;2.30;;
35558;SDS011;21661;50.794;-1.066;2024-01-10T08:26:47;8.32;;;2.00;;
35558;SDS011;21661;50.794;-1.066;2024-01-10T08:29:17;9.98;;;2.17;;
35558;SDS011;21661;50.794;-1.066;2024-01-10T08:31:46;7.03;;;1.85;;
35558;SDS011;21661;50.794;-1.066;2024-01-10T08:34:13;8.90;;;2.13;;
35558;SDS011;21661;50.794;-1.066;2024-01-10T08:36:39;7.63;;;2.47;;
35558;SDS011;21661;50.794;-1.066;2024-01-10T08:39:04;8.65;;;2.08;;
35558;SDS011;21661;50.794;-1.066;2024-01-10T08:41:31;9.88;;;1.73;;
35558;SDS011;21661;50.794;-1.066;2024-01-10T08:43:57;6.25;;;1.70;;
35558;SDS011;21661;50.794;-1.066;2024-01-10T08:46:24;10.50;;;1.88;;
35558;SDS011;21661;50.794;-1.066;2024-01-10T08:48:50;7.45;;;1.80;;
35558;SDS011;21661;50.794;-1.066;2024-01-10T08:51:15;7.25;;;1.67;;
35558;SDS011;21661;50.794;-1.066;2024-01-10T08:53:42;6.78;;;2.03;;
35558;SDS011;21661;50.794;-1.066;2024-01-10T08:56:08;10.10;;;1.85;;
35558;SDS011;21661;50.794;-1.066;2024-01-10T08:58:35;4.60;;;1.48;;
35558;SDS011;21661;50.794;-1.066;2024-01-10T09:01:00;6.88;;;1.27;;
35558;SDS011;21661;50.794;-1.066;2024-01-10T09:03:26;8.45;;;1.42;;
35558;SDS011;21661;50.794;-1.066;2024-01-10T09:05:52;7.35;;;1.42;;
35558;SDS011;21661;50.794;-1.066;2024-01-10T09:08:17;7.15;;;1.50;;
35558;SDS011;21661;50.794;-1.066;2024-01-10T09:10:45;8.32;;;2.53;;
35558;SDS011;21661;50.794;-1.066;2024-01-10T09:13:10;10.05;;;1.92;;
35558;SDS011;21661;50.794;-1.066;2024-01-10T09:15:36;5.85;;;2.42;;
35558;SDS011;21661;50.794;-1.066;2024-01-10T09:18:01;7.88;;;1.70;;
35558;SDS011;21661;50.794;-1.066;2024-01-10T09:20:27;7.88;;;2.55;;
35558;SDS011;21661;50.794;-1.066;2024-01-10T09:22:53;6.93;;;1.98;;
35558;SDS011;21661;50.794;-1.066;2024-01-10T09:25:19;5.75;;;1.77;;
35558;SDS011;21661;50.794;-1.066;2024-01-10T09:27:45;6.68;;;1.40;;
35558;SDS011;21661;50.794;-1.066;2024-01-10T09:30:12;8.05;;;1.85;;
35558;SDS011;21661;50.794;-1.066;2024-01-10T09:32:38;7.60;;;1.55;;
35558;SDS011;21661;50.794;-1.066;2024-01-10T09:35:04;5.85;;;1.52;;
35558;SDS011;21661;50.794;-1.066;2024-01-10T09:37:30;6.20;;;1.55;;
35558;SDS011;21661;50.794;-1.066;2024-01-10T09:39:56;13.93;;;3.55;;
35558;SDS011;21661;50.794;-1.066;2024-01-10T09:42:21;7.38;;;1.38;;
35558;SDS011;21661;50.794;-1.066;2024-01-10T09:44:50;8.55;;;1.35;;
35558;SDS011;21661;50.794;-1.066;2024-01-10T09:47:16;7.43;;;1.60;;
35558;SDS011;21661;50.794;-1.066;2024-01-10T09:49:45;7.95;;;1.48;;
35558;SDS011;21661;50.794;-1.066;2024-01-10T09:52:14;5.28;;;1.10;;
35558;SDS011;21661;50.794;-1.066;2024-01-10T09:57:19;3.95;;;1.10;;
35558;SDS011;21661;50.794;-1.066;2024-01-10T09:59:46;4.35;;;1.30;;
35558;SDS011;21661;50.794;-1.066;2024-01-10T10:02:13;5.60;;;1.40;;
35558;SDS011;21661;50.794;-1.066;2024-01-10T10:04:41;6.65;;;2.00;;
35558;SDS011;21661;50.794;-1.066;2024-01-10T10:07:28;5.45;;;1.40;;
35558;SDS011;21661;50.794;-1.066;2024-01-10T10:09:54;8.30;;;1.65;;
35558;SDS011;21661;50.794;-1.066;2024-01-10T10:12:21;6.72;;;2.17;;
35558;SDS011;21661;50.794;-1.066;2024-01-10T10:14:49;9.52;;;1.90;;
35558;SDS011;21661;50.794;-1.066;2024-01-10T10:17:15;9.63;;;2.10;;
35558;SDS011;21661;50.794;-1.066;2024-01-10T10:19:42;5.75;;;2.25;;
35558;SDS011;21661;50.794;-1.066;2024-01-10T10:22:09;8.48;;;2.00;;
35558;SDS011;21661;50.794;-1.066;2024-01-10T10:24:36;10.57;;;1.80;;
35558;SDS011;21661;50.794;-1.066;2024-01-10T10:27:07;7.88;;;1.90;;
35558;SDS011;21661;50.794;-1.066;2024-01-10T10:29:36;8.30;;;1.90;;
35558;SDS011;21661;50.794;-1.066;2024-01-10T10:32:02;8.68;;;2.00;;
35558;SDS011;21661;50.794;-1.066;2024-01-10T10:34:31;9.82;;;2.03;;
35558;SDS011;21661;50.794;-1.066;2024-01-10T10:39:25;10.50;;;2.13;;
35558;SDS011;21661;50.794;-1.066;2024-01-10T10:41:51;7.72;;;2.08;;
35558;SDS011;21661;50.794;-1.066;2024-01-10T10:44:19;8.13;;;2.00;;
35558;SDS011;21661;50.794;-1.066;2024-01-10T10:46:53;9.27;;;2.42;;
35558;SDS011;21661;50.794;-1.066;2024-01-10T10:49:28;11.38;;;2.17;;
35558;SDS011;21661;50.794;-1.066;2024-01-10T10:51:57;9.82;;;1.85;;
35558;SDS011;21661;50.794;-1.066;2024-01-10T10:54:28;8.43;;;1.90;;
35558;SDS011;21661;50.794;-1.066;2024-01-10T10:56:57;16.67;;;3.55;;
35558;SDS011;21661;50.794;-1.066;2024-01-10T10:59:26;18.20;;;3.15;;
35558;SDS011;21661;50.794;-1.066;2024-01-10T11:01:53;8.77;;;2.50;;
35558;SDS011;21661;50.794;-1.066;2024-01-10T11:04:19;11.98;;;3.17;;
35558;SDS011;21661;50.794;-1.066;2024-01-10T11:06:46;9.63;;;2.28;;
35558;SDS011;21661;50.794;-1.066;2024-01-10T11:09:11;10.07;;;1.85;;
35558;SDS011;21661;50.794;-1.066;2024-01-10T11:12:05;10.27;;;2.22;;
35558;SDS011;21661;50.794;-1.066;2024-01-10T11:17:46;8.18;;;2.53;;
35558;SDS011;21661;50.794;-1.066;2024-01-10T11:25:28;9.77;;;2.15;;
35558;SDS011;21661;50.794;-1.066;2024-01-10T11:27:55;7.25;;;1.80;;
35558;SDS011;21661;50.794;-1.066;2024-01-10T11:30:37;10.45;;;2.60;;
35558;SDS011;21661;50.794;-1.066;2024-01-10T11:33:18;8.10;;;1.92;;
35558;SDS011;21661;50.794;-1.066;2024-01-10T11:38:42;6.53;;;2.17;;
35558;SDS011;21661;50.794;-1.066;2024-01-10T11:41:10;8.85;;;2.10;;
35558;SDS011;21661;50.794;-1.066;2024-01-10T11:43:37;5.90;;;2.03;;
35558;SDS011;21661;50.794;-1.066;2024-01-10T11:46:03;11.05;;;2.40;;
35558;SDS011;21661;50.794;-1.066;2024-01-10T11:48:30;9.55;;;2.20;;
35558;SDS011;21661;50.794;-1.066;2024-01-10T11:50:57;9.15;;;3.50;;
35558;SDS011;21661;50.794;-1.066;2024-01-10T11:53:42;12.45;;;2.95;;
35558;SDS011;21661;50.794;-1.066;2024-01-10T11:56:12;9.05;;;2.03;;
35558;SDS011;21661;50.794;-1.066;2024-01-10T12:01:26;6.57;;;2.67;;
35558;SDS011;21661;50.794;-1.066;2024-01-10T12:03:52;11.65;;;2.15;;
35558;SDS011;21661;50.794;-1.066;2024-01-10T12:06:20;8.57;;;2.20;;
35558;SDS011;21661;50.794;-1.066;2024-01-10T12:08:46;9.68;;;2.40;;
35558;SDS011;21661;50.794;-1.066;2024-01-10T12:11:12;8.95;;;2.50;;
35558;SDS011;21661;50.794;-1.066;2024-01-10T12:13:38;9.10;;;2.40;;
35558;SDS011;21661;50.794;-1.066;2024-01-10T12:16:04;10.63;;;2.47;;
35558;SDS011;21661;50.794;-1.066;2024-01-10T12:18:30;13.10;;;2.90;;
35558;SDS011;21661;50.794;-1.066;2024-01-10T12:20:56;9.93;;;2.78;;
35558;SDS011;21661;50.794;-1.066;2024-01-10T12:23:21;7.95;;;2.25;;
35558;SDS011;21661;50.794;-1.066;2024-01-10T12:25:50;11.18;;;2.30;;
35558;SDS011;21661;50.794;-1.066;2024-01-10T12:28:16;10.27;;;2.50;;
35558;SDS011;21661;50.794;-1.066;2024-01-10T12:30:42;10.43;;;2.47;;
35558;SDS011;21661;50.794;-1.066;2024-01-10T12:33:11;10.98;;;2.40;;
35558;SDS011;21661;50.794;-1.066;2024-01-10T12:35:36;6.60;;;2.25;;
35558;SDS011;21661;50.794;-1.066;2024-01-10T12:38:06;10.63;;;2.60;;
35558;SDS011;21661;50.794;-1.066;2024-01-10T12:40:32;10.40;;;3.20;;
35558;SDS011;21661;50.794;-1.066;2024-01-10T12:43:04;8.98;;;3.03;;
35558;SDS011;21661;50.794;-1.066;2024-01-10T12:45:30;7.50;;;3.28;;
35558;SDS011;21661;50.794;-1.066;2024-01-10T12:47:57;7.22;;;2.47;;
35558;SDS011;21661;50.794;-1.066;2024-01-10T12:50:23;6.22;;;2.33;;
35558;SDS011;21661;50.794;-1.066;2024-01-10T12:52:50;8.95;;;2.58;;
35558;SDS011;21661;50.794;-1.066;2024-01-10T12:55:16;8.82;;;2.40;;
35558;SDS011;21661;50.794;-1.066;2024-01-10T12:57:42;8.23;;;2.65;;
35558;SDS011;21661;50.794;-1.066;2024-01-10T13:00:09;10.82;;;2.28;;
35558;SDS011;21661;50.794;-1.066;2024-01-10T13:02:36;5.72;;;2.55;;
35558;SDS011;21661;50.794;-1.066;2024-01-10T13:05:05;8.80;;;2.10;;
35558;SDS011;21661;50.794;-1.066;2024-01-10T13:07:35;11.27;;;2.25;;
35558;SDS011;21661;50.794;-1.066;2024-01-10T13:10:01;9.23;;;2.42;;
35558;SDS011;21661;50.794;-1.066;2024-01-10T13:12:27;8.45;;;1.95;;
35558;SDS011;21661;50.794;-1.066;2024-01-10T13:14:52;9.90;;;2.22;;
35558;SDS011;21661;50.794;-1.066;2024-01-10T13:17:18;6.30;;;1.70;;
35558;SDS011;21661;50.794;-1.066;2024-01-10T13:19:45;6.32;;;1.77;;
35558;SDS011;21661;50.794;-1.066;2024-01-10T13:22:14;6.65;;;1.80;;
35558;SDS011;21661;50.794;-1.066;2024-01-10T13:27:10;9.45;;;2.50;;
35558;SDS011;21661;50.794;-1.066;2024-01-10T13:29:36;11.77;;;2.22;;
35558;SDS011;21661;50.794;-1.066;2024-01-10T13:32:03;10.05;;;1.73;;
35558;SDS011;21661;50.794;-1.066;2024-01-10T13:34:30;11.45;;;2.20;;
35558;SDS011;21661;50.794;-1.066;2024-01-10T13:36:55;7.93;;;2.42;;
35558;SDS011;21661;50.794;-1.066;2024-01-10T13:39:21;12.30;;;2.47;;
35558;SDS011;21661;50.794;-1.066;2024-01-10T13:41:47;14.32;;;2.60;;
35558;SDS011;21661;50.794;-1.066;2024-01-10T13:44:12;10.55;;;2.00;;
35558;SDS011;21661;50.794;-1.066;2024-01-10T13:46:38;8.65;;;2.20;;
35558;SDS011;21661;50.794;-1.066;2024-01-10T13:49:04;7.28;;;1.83;;
35558;SDS011;21661;50.794;-1.066;2024-01-10T13:51:30;8.48;;;1.90;;
35558;SDS011;21661;50.794;-1.066;2024-01-10T13:53:57;6.68;;;1.98;;
35558;SDS011;21661;50.794;-1.066;2024-01-10T13:56:22;8.57;;;1.60;;
35558;SDS011;21661;50.794;-1.066;2024-01-10T13:58:49;6.07;;;1.90;;
35558;SDS011;21661;50.794;-1.066;2024-01-10T14:01:14;10.82;;;2.72;;
35558;SDS011;21661;50.794;-1.066;2024-01-10T14:03:40;6.55;;;1.90;;
35558;SDS011;21661;50.794;-1.066;2024-01-10T14:06:06;9.00;;;2.22;;
35558;SDS011;21661;50.794;-1.066;2024-01-10T14:08:31;7.78;;;1.95;;
35558;SDS011;21661;50.794;-1.066;2024-01-10T14:10:57;7.90;;;1.85;;
35558;SDS011;21661;50.794;-1.066;2024-01-10T14:13:23;10.38;;;2.47;;
35558;SDS011;21661;50.794;-1.066;2024-01-10T14:15:49;5.82;;;1.83;;
35558;SDS011;21661;50.794;-1.066;2024-01-10T14:18:14;9.20;;;2.53;;
35558;SDS011;21661;50.794;-1.066;2024-01-10T14:20:40;10.13;;;2.08;;
35558;SDS011;21661;50.794;-1.066;2024-01-10T14:23:05;9.15;;;2.20;;
35558;SDS011;21661;50.794;-1.066;2024-01-10T14:25:31;10.43;;;1.85;;
35558;SDS011;21661;50.794;-1.066;2024-01-10T14:27:57;8.45;;;2.22;;
35558;SDS011;21661;50.794;-1.066;2024-01-10T14:30:25;8.18;;;1.95;;
35558;SDS011;21661;50.794;-1.066;2024-01-10T14:32:52;5.95;;;1.70;;
35558;SDS011;21661;50.794;-1.066;2024-01-10T14:35:17;9.15;;;2.40;;
35558;SDS011;21661;50.794;-1.066;2024-01-10T14:37:43;6.43;;;1.40;;
35558;SDS011;21661;50.794;-1.066;2024-01-10T14:40:09;9.52;;;1.70;;
35558;SDS011;21661;50.794;-1.066;2024-01-10T14:42:36;13.73;;;2.40;;
35558;SDS011;21661;50.794;-1.066;2024-01-10T14:45:02;7.85;;;2.25;;
35558;SDS011;21661;50.794;-1.066;2024-01-10T14:47:29;8.10;;;2.28;;
35558;SDS011;21661;50.794;-1.066;2024-01-10T14:49:55;9.98;;;2.17;;